Endeavour — C6BE4 — position and weather

sailwx.info

Track history (hours):
 
Tides and Currents Weather Stations Pressure Air Temp Water Temp Dewpoint Dewpoint Depression Visibility Wind Speed Wind Dir Waves Ship Positions

Endeavour

Operator: Lindblad Expeditions

Last reported at 2019-Sep-21 07:49 UTC. Time now 2019-Sep-21 11:00 UTC.
Position S 34°19' E 151°14'.

Length 190 m; draft 6.4 m.

Type: Cargo ship. MMSI: 311000239.

Date/timePositionNaut miles runAvg speedWind from/ knotsBaromVisibWave heightAir tempDewpointWater temp
2019-Sep-21 07:49S 34°19' E 151°14'3 4.9
2019-Sep-21 07:19S 34°20' E 151°11'9 0.4
2019-Sep-20 09:25S 34°17' E 151°21'614.5
2019-Sep-20 08:59S 34°12' E 151°24'715.0
2019-Sep-20 08:30S 34°06' E 151°29'714.8
2019-Sep-20 08:00S 34°00' E 151°35'714.8
2019-Sep-20 07:30S 33°55' E 151°42'714.8
2019-Sep-20 07:00S 33°49' E 151°47'713.1
2019-Sep-20 06:30S 33°45' E 151°53'510.9
2019-Sep-20 06:00S 33°43' E 151°47'612.3
2019-Sep-20 05:30S 33°48' E 151°43'612.3
2019-Sep-20 05:00S 33°54' E 151°39'612.3
2019-Sep-20 04:30S 33°59' E 151°35'612.5
2019-Sep-20 04:00S 34°04' E 151°31'712.6
2019-Sep-20 03:29S 34°10' E 151°27'  
2019-Sep-15 11:41S 34°27' E 150°54'0 0.0
2019-Sep-15 11:26S 34°27' E 150°54'0 0.0
2019-Sep-15 10:44S 34°27' E 150°54'0 0.0
2019-Sep-15 10:26S 34°27' E 150°54'0 0.0
2019-Sep-15 09:59S 34°27' E 150°54'0 0.0
2019-Sep-15 09:29S 34°27' E 150°54'0 0.0
2019-Sep-15 08:17S 34°27' E 150°54'  
Track history (hours):
 
Tides and Currents Weather Stations Pressure Air Temp Water Temp Dewpoint Dewpoint Depression Visibility Wind Speed Wind Dir Waves Ship Positions

Endeavour

Operator: Lindblad Expeditions

Last reported at 2019-Sep-21 07:49 UTC. Time now 2019-Sep-21 11:00 UTC.
Position S 34°19' E 151°14'.

Length 190 m; draft 6.4 m.

Type: Cargo ship. MMSI: 311000239.

Date/timePositionNaut miles runAvg speedWind from/ knotsBaromVisibWave heightAir tempDewpointWater temp
2019-Sep-21 07:49S 34°19' E 151°14'3 4.9
2019-Sep-21 07:19S 34°20' E 151°11'9 0.4
2019-Sep-20 09:25S 34°17' E 151°21'614.5
2019-Sep-20 08:59S 34°12' E 151°24'715.0
2019-Sep-20 08:30S 34°06' E 151°29'714.8
2019-Sep-20 08:00S 34°00' E 151°35'714.8
2019-Sep-20 07:30S 33°55' E 151°42'714.8
2019-Sep-20 07:00S 33°49' E 151°47'713.1
2019-Sep-20 06:30S 33°45' E 151°53'510.9
2019-Sep-20 06:00S 33°43' E 151°47'612.3
2019-Sep-20 05:30S 33°48' E 151°43'612.3
2019-Sep-20 05:00S 33°54' E 151°39'612.3
2019-Sep-20 04:30S 33°59' E 151°35'612.5
2019-Sep-20 04:00S 34°04' E 151°31'712.6
2019-Sep-20 03:29S 34°10' E 151°27'  
2019-Sep-15 11:41S 34°27' E 150°54'0 0.0
2019-Sep-15 11:26S 34°27' E 150°54'0 0.0
2019-Sep-15 10:44S 34°27' E 150°54'0 0.0
2019-Sep-15 10:26S 34°27' E 150°54'0 0.0
2019-Sep-15 09:59S 34°27' E 150°54'0 0.0
2019-Sep-15 09:29S 34°27' E 150°54'0 0.0
2019-Sep-15 08:17S 34°27' E 150°54'  

Dump ship's entire track history